createdAt,value
2018-03-30T00:02:08.426Z,100486.61
2018-03-30T00:04:35.982Z,100485.20
2018-03-30T00:07:09.057Z,100488.29
2018-03-30T00:09:48.245Z,100489.84
2018-03-30T00:12:17.426Z,100492.97
2018-03-30T00:14:44.952Z,100500.95
2018-03-30T00:17:12.484Z,100495.84
2018-03-30T00:19:40.011Z,100500.52
2018-03-30T00:22:07.542Z,100502.63
2018-03-30T00:24:35.111Z,100505.02
2018-03-30T00:27:03.397Z,100511.97
2018-03-30T00:29:30.914Z,100514.58
2018-03-30T00:31:58.446Z,100525.06
2018-03-30T00:34:25.981Z,100523.67
2018-03-30T00:36:54.079Z,100524.11
2018-03-30T00:39:22.591Z,100526.01
2018-03-30T00:41:50.121Z,100529.64
2018-03-30T00:44:17.789Z,100525.09
2018-03-30T00:46:45.311Z,100534.74
2018-03-30T00:49:12.869Z,100527.23
2018-03-30T00:51:40.834Z,100532.59
2018-03-30T00:54:08.356Z,100532.62
2018-03-30T00:56:35.886Z,100531.67
2018-03-30T00:59:03.417Z,100545.53
2018-03-30T01:01:31.766Z,100531.41
2018-03-30T01:04:00.141Z,100539.11
2018-03-30T01:06:27.686Z,100538.23
2018-03-30T01:08:55.223Z,100550.62
2018-03-30T01:11:22.750Z,100561.56
2018-03-30T01:13:50.274Z,100557.61
2018-03-30T01:16:18.548Z,100556.28
2018-03-30T01:18:47.308Z,100560.39
2018-03-30T01:21:14.838Z,100559.02
2018-03-30T01:23:42.860Z,100553.14
2018-03-30T01:26:10.402Z,100552.89
2018-03-30T01:28:38.698Z,100560.27
2018-03-30T01:31:06.231Z,100558.09
2018-03-30T01:33:33.758Z,100555.09
2018-03-30T01:36:04.933Z,100562.69
2018-03-30T01:38:32.462Z,100566.67
2018-03-30T01:40:59.982Z,100568.70
2018-03-30T01:43:27.639Z,100567.05
2018-03-30T01:45:55.160Z,100564.05
2018-03-30T01:48:22.686Z,100562.23
2018-03-30T01:50:50.223Z,100579.01
2018-03-30T01:53:17.753Z,100583.41
2018-03-30T01:55:45.283Z,100584.69
2018-03-30T01:58:12.811Z,100581.94
2018-03-30T02:00:40.345Z,100586.50
2018-03-30T02:03:07.863Z,100589.20
2018-03-30T02:05:35.389Z,100596.31
2018-03-30T02:08:02.908Z,100599.86
2018-03-30T02:10:30.438Z,100593.64
2018-03-30T02:12:57.965Z,100598.36
2018-03-30T02:15:25.485Z,100601.48
2018-03-30T02:17:53.010Z,100603.59
2018-03-30T02:20:20.537Z,100607.20
2018-03-30T02:22:48.096Z,100611.09
2018-03-30T02:25:15.698Z,100611.89
2018-03-30T02:27:43.443Z,100609.16
2018-03-30T02:30:11.225Z,100616.41
2018-03-30T02:32:38.920Z,100604.32
2018-03-30T02:35:06.474Z,100607.39
2018-03-30T02:37:34.067Z,100606.06
2018-03-30T02:40:01.702Z,100604.81
2018-03-30T02:42:29.227Z,100609.70
2018-03-30T02:44:56.775Z,100610.11
2018-03-30T02:47:24.351Z,100604.95
2018-03-30T02:49:51.922Z,100604.91
2018-03-30T02:52:19.527Z,100604.94
2018-03-30T02:54:48.053Z,100602.86
2018-03-30T02:57:15.682Z,100595.83
2018-03-30T02:59:43.339Z,100602.44
2018-03-30T03:02:11.097Z,100602.05
2018-03-30T03:04:39.352Z,100594.61
2018-03-30T03:07:07.151Z,100594.17
2018-03-30T03:09:34.771Z,100599.84
2018-03-30T03:12:03.166Z,100599.92
2018-03-30T03:14:31.129Z,100603.96
2018-03-30T03:16:58.834Z,100605.38
2018-03-30T03:19:27.029Z,100605.33
2018-03-30T03:21:54.661Z,100595.27
2018-03-30T03:24:23.174Z,100599.23
2018-03-30T03:26:52.269Z,100603.16
2018-03-30T03:29:20.790Z,100602.27
2018-03-30T03:31:48.364Z,100593.08
2018-03-30T03:34:15.929Z,100604.98
2018-03-30T03:36:44.490Z,100593.17
2018-03-30T03:39:12.080Z,100597.13
2018-03-30T03:41:39.748Z,100591.52
2018-03-30T03:44:08.417Z,100596.37
2018-03-30T03:46:36.056Z,100602.52
2018-03-30T03:49:04.508Z,100600.31
2018-03-30T03:51:32.080Z,100603.48
2018-03-30T03:53:59.737Z,100603.09
2018-03-30T03:56:27.976Z,100608.84
2018-03-30T03:58:55.626Z,100606.18
2018-03-30T04:01:23.316Z,100603.98
2018-03-30T04:03:51.028Z,100606.66
2018-03-30T04:06:18.713Z,100603.52
2018-03-30T04:08:47.345Z,100611.03
2018-03-30T04:11:15.026Z,100613.64
2018-03-30T04:13:42.657Z,100608.82
2018-03-30T04:16:10.221Z,100601.33
2018-03-30T04:18:37.834Z,100602.22
2018-03-30T04:21:05.415Z,100605.28
2018-03-30T04:23:32.958Z,100607.92
2018-03-30T04:26:01.425Z,100609.28
2018-03-30T04:28:28.952Z,100614.13
2018-03-30T04:30:57.214Z,100614.59
2018-03-30T04:33:25.798Z,100611.50
2018-03-30T04:35:53.793Z,100618.16
2018-03-30T04:38:21.329Z,100619.02
2018-03-30T04:40:48.858Z,100613.31
2018-03-30T04:43:16.378Z,100617.75
2018-03-30T04:45:43.901Z,100626.10
2018-03-30T04:48:11.438Z,100629.21
2018-03-30T04:50:38.970Z,100623.90
2018-03-30T04:53:06.498Z,100624.30
2018-03-30T04:55:34.025Z,100625.14
2018-03-30T04:58:01.552Z,100621.59
2018-03-30T05:00:29.085Z,100624.68
2018-03-30T05:02:56.613Z,100627.34
2018-03-30T05:05:25.023Z,100621.97
2018-03-30T05:07:52.617Z,100625.89
2018-03-30T05:10:20.103Z,100615.73
2018-03-30T05:12:47.624Z,100617.94
2018-03-30T05:15:15.160Z,100615.71
2018-03-30T05:17:42.682Z,100612.25
2018-03-30T05:20:10.206Z,100614.34
2018-03-30T05:22:37.725Z,100617.89
2018-03-30T05:25:05.250Z,100619.63
2018-03-30T05:27:32.885Z,100628.39
2018-03-30T05:30:00.428Z,100633.98
2018-03-30T06:54:24.926Z,100660.95
2018-03-30T06:56:52.462Z,100670.44
2018-03-30T06:59:19.999Z,100663.64
2018-03-30T07:01:47.544Z,100659.64
2018-03-30T07:04:15.074Z,100656.05
2018-03-30T07:06:42.619Z,100656.52
2018-03-30T07:09:10.179Z,100656.27
2018-03-30T07:11:38.659Z,100658.25
2018-03-30T07:14:06.196Z,100658.53
2018-03-30T07:16:33.768Z,100667.88
2018-03-30T07:19:01.318Z,100663.43
2018-03-30T07:21:28.840Z,100662.94
2018-03-30T07:23:56.365Z,100659.18
2018-03-30T07:26:23.893Z,100663.19
2018-03-30T07:28:52.256Z,100668.95
2018-03-30T07:31:19.793Z,100662.64
2018-03-30T07:33:47.331Z,100663.89
2018-03-30T07:36:15.811Z,100669.16
2018-03-30T07:38:43.333Z,100668.34
2018-03-30T07:41:10.857Z,100672.11
2018-03-30T07:43:39.128Z,100673.52
2018-03-30T07:46:06.658Z,100671.21
2018-03-30T07:48:34.185Z,100671.09
2018-03-30T07:51:01.710Z,100675.13
2018-03-30T07:53:29.236Z,100678.55
2018-03-30T07:55:56.766Z,100679.69
2018-03-30T07:58:24.296Z,100680.63
2018-03-30T08:00:52.430Z,100693.19
2018-03-30T08:03:20.193Z,100692.84
2018-03-30T08:05:48.681Z,100686.89
2018-03-30T08:08:16.850Z,100692.60
2018-03-30T08:10:44.370Z,100689.03
2018-03-30T08:13:12.518Z,100684.68
2018-03-30T08:15:40.739Z,100681.27
2018-03-30T08:18:08.335Z,100682.27
2018-03-30T08:20:35.840Z,100682.48
2018-03-30T08:23:04.294Z,100691.41
2018-03-30T08:25:31.841Z,100686.38
2018-03-30T08:27:59.373Z,100687.05
2018-03-30T08:30:26.912Z,100684.81
2018-03-30T08:32:55.016Z,100684.69
2018-03-30T08:35:22.535Z,100687.53
2018-03-30T08:37:50.062Z,100693.83
2018-03-30T08:40:18.201Z,100696.62
2018-03-30T08:42:45.714Z,100693.92
2018-03-30T08:45:13.264Z,100687.56
2018-03-30T08:47:41.136Z,100693.89
2018-03-30T08:50:08.657Z,100687.20
2018-03-30T08:52:39.045Z,100699.28
2018-03-30T08:55:07.139Z,100697.20
2018-03-30T08:57:34.670Z,100681.81
2018-03-30T09:00:02.587Z,100684.39
2018-03-30T09:02:30.133Z,100682.54
2018-03-30T09:04:57.729Z,100678.41
2018-03-30T09:07:25.275Z,100684.47
2018-03-30T09:09:52.812Z,100676.59
2018-03-30T09:12:20.436Z,100684.06
2018-03-30T09:14:47.958Z,100684.65
2018-03-30T09:17:15.574Z,100690.02
2018-03-30T09:19:43.092Z,100690.12
2018-03-30T09:22:10.686Z,100689.28
2018-03-30T09:24:38.208Z,100690.23
2018-03-30T09:27:05.856Z,100683.76
2018-03-30T09:29:33.357Z,100682.14
2018-03-30T09:32:00.916Z,100675.50
2018-03-30T09:34:28.468Z,100670.58
2018-03-30T09:36:56.114Z,100661.99
2018-03-30T09:39:23.645Z,100665.28
2018-03-30T09:41:51.161Z,100659.94
2018-03-30T09:44:18.684Z,100657.43
2018-03-30T09:46:46.209Z,100648.11
2018-03-30T09:49:13.720Z,100647.52
2018-03-30T09:51:41.286Z,100646.83
2018-03-30T09:54:08.825Z,100640.05
2018-03-30T09:56:36.344Z,100634.18
2018-03-30T09:59:03.880Z,100624.94
2018-03-30T10:01:31.406Z,100618.86
2018-03-30T10:03:58.945Z,100610.14
2018-03-30T10:06:26.492Z,100608.14
2018-03-30T10:08:54.034Z,100603.09
2018-03-30T10:11:21.676Z,100602.49
2018-03-30T10:13:49.205Z,100599.55
2018-03-30T10:16:16.808Z,100598.42
2018-03-30T10:18:44.480Z,100596.15
2018-03-30T10:21:12.126Z,100590.20
2018-03-30T10:23:39.654Z,100590.27
2018-03-30T10:26:07.253Z,100592.70
2018-03-30T10:28:34.774Z,100577.19
2018-03-30T10:31:02.293Z,100577.69
2018-03-30T10:33:29.820Z,100579.37
2018-03-30T10:35:57.352Z,100570.10
2018-03-30T10:38:24.871Z,100569.67
2018-03-30T10:40:52.396Z,100554.63
2018-03-30T10:43:19.965Z,100571.94
2018-03-30T10:45:47.489Z,100570.77
2018-03-30T10:48:15.075Z,100563.92
2018-03-30T10:50:43.478Z,100567.30
2018-03-30T10:53:11.019Z,100566.33
2018-03-30T10:55:38.582Z,100565.83
2018-03-30T10:58:06.135Z,100564.48
2018-03-30T11:00:33.680Z,100564.57
2018-03-30T11:03:01.222Z,100552.47
2018-03-30T11:05:28.816Z,100546.64
2018-03-30T11:07:56.379Z,100556.13
2018-03-30T11:10:23.993Z,100560.09
2018-03-30T11:12:51.544Z,100559.66
2018-03-30T11:15:19.070Z,100556.50
2018-03-30T11:17:46.926Z,100545.42
2018-03-30T11:20:14.484Z,100546.42
2018-03-30T11:22:42.067Z,100547.98
2018-03-30T11:25:09.568Z,100550.02
2018-03-30T11:27:37.104Z,100538.22
2018-03-30T11:30:04.633Z,100533.14
2018-03-30T11:32:32.154Z,100539.47
2018-03-30T11:34:59.683Z,100522.91
2018-03-30T11:37:27.225Z,100528.78
2018-03-30T11:39:54.759Z,100526.67
2018-03-30T11:42:22.289Z,100517.98
2018-03-30T11:44:49.824Z,100507.85
2018-03-30T11:47:17.407Z,100506.93
2018-03-30T11:49:44.934Z,100507.80
2018-03-30T11:52:12.497Z,100505.25
2018-03-30T11:54:40.068Z,100496.11
2018-03-30T11:57:07.615Z,100498.67
2018-03-30T11:59:35.143Z,100496.12
2018-03-30T12:02:02.660Z,100510.45
2018-03-30T12:04:30.265Z,100498.06
2018-03-30T12:06:57.791Z,100496.77
2018-03-30T12:09:25.314Z,100493.33
2018-03-30T12:11:52.834Z,100481.09
2018-03-30T12:14:20.362Z,100481.56
2018-03-30T12:16:47.954Z,100479.36
2018-03-30T12:19:15.516Z,100482.05
2018-03-30T12:21:43.081Z,100480.66
2018-03-30T12:24:10.605Z,100482.87
2018-03-30T12:26:38.132Z,100479.15
2018-03-30T12:29:05.684Z,100473.91
2018-03-30T12:31:33.316Z,100470.16
2018-03-30T12:34:00.845Z,100463.93
2018-03-30T12:36:28.385Z,100461.25
2018-03-30T12:38:55.926Z,100457.59
2018-03-30T12:41:23.454Z,100457.92
2018-03-30T12:43:50.982Z,100457.63
2018-03-30T12:46:18.626Z,100447.68
2018-03-30T12:48:46.139Z,100449.79
2018-03-30T12:51:13.663Z,100443.05
2018-03-30T12:53:41.204Z,100434.50
2018-03-30T12:56:08.741Z,100437.05
2018-03-30T12:58:36.270Z,100420.63
2018-03-30T13:01:03.785Z,100420.16
2018-03-30T13:03:31.333Z,100416.24
2018-03-30T13:05:58.898Z,100401.36
2018-03-30T13:08:26.509Z,100398.84
2018-03-30T13:10:54.026Z,100394.98
2018-03-30T13:13:21.560Z,100395.27
2018-03-30T13:15:49.091Z,100391.28
2018-03-30T13:18:16.749Z,100382.78
2018-03-30T13:20:44.282Z,100375.59
2018-03-30T13:23:11.869Z,100374.36
2018-03-30T13:25:39.398Z,100368.98
2018-03-30T13:28:06.930Z,100357.95
2018-03-30T13:30:34.457Z,100350.38
2018-03-30T13:33:01.986Z,100343.96
2018-03-30T13:35:29.521Z,100335.87
2018-03-30T13:37:57.132Z,100347.02
2018-03-30T13:40:24.654Z,100346.40
2018-03-30T13:42:52.174Z,100346.78
2018-03-30T13:45:19.712Z,100325.67
2018-03-30T13:47:47.250Z,100325.66
2018-03-30T13:50:14.782Z,100326.20
2018-03-30T13:52:44.127Z,100328.47
2018-03-30T13:55:11.650Z,100325.95
2018-03-30T13:57:40.023Z,100321.55
2018-03-30T14:03:04.944Z,100303.39
2018-03-30T14:08:33.573Z,100291.80
2018-03-30T14:11:02.859Z,100287.20
2018-03-30T14:13:30.378Z,100281.69
2018-03-30T14:16:08.259Z,100273.06
2018-03-30T14:18:36.737Z,100275.64
2018-03-30T14:21:05.078Z,100276.38
2018-03-30T14:23:33.680Z,100276.12
2018-03-30T14:26:15.089Z,100273.88
2018-03-30T14:28:44.482Z,100276.16
2018-03-30T14:31:17.625Z,100263.42
2018-03-30T14:33:46.653Z,100273.63
2018-03-30T14:36:32.917Z,100271.23
2018-03-30T14:39:12.038Z,100277.28
2018-03-30T14:41:39.605Z,100275.80
2018-03-30T14:44:11.810Z,100269.05
2018-03-30T14:46:50.102Z,100265.23
2018-03-30T14:49:18.517Z,100262.36
2018-03-30T14:54:50.234Z,100263.04
2018-03-30T14:57:20.549Z,100256.16
2018-03-30T14:59:51.147Z,100252.70
2018-03-30T15:02:30.253Z,100240.92
2018-03-30T15:04:58.585Z,100238.59
2018-03-30T15:07:29.675Z,100238.39
2018-03-30T15:10:05.865Z,100235.23
2018-03-30T15:15:48.590Z,100234.52
2018-03-30T15:18:18.931Z,100232.29
2018-03-30T15:23:48.521Z,100228.55
2018-03-30T15:29:18.565Z,100232.31
2018-03-30T15:32:07.655Z,100225.58
2018-03-30T15:34:50.633Z,100230.52
2018-03-30T15:37:18.245Z,100227.27
2018-03-30T15:40:06.249Z,100223.53
2018-03-30T15:42:48.662Z,100232.64
2018-03-30T15:45:17.071Z,100224.16
2018-03-30T15:47:44.605Z,100221.29
2018-03-30T15:50:12.126Z,100220.77
2018-03-30T15:52:39.663Z,100211.86
2018-03-30T15:55:07.203Z,100212.25
2018-03-30T15:57:34.802Z,100212.69
2018-03-30T16:00:02.347Z,100202.86
2018-03-30T16:02:29.989Z,100212.17
2018-03-30T16:04:57.522Z,100206.42
2018-03-30T16:07:25.040Z,100208.67
2018-03-30T16:09:53.588Z,100209.02
2018-03-30T16:12:21.970Z,100211.84
2018-03-30T16:14:49.503Z,100204.23
2018-03-30T16:17:17.024Z,100192.17
2018-03-30T16:19:44.022Z,100214.58
2018-03-30T16:22:11.023Z,100208.30
2018-03-30T16:24:38.127Z,100222.72
2018-03-30T16:27:05.181Z,100224.00
2018-03-30T16:29:32.188Z,100220.08
2018-03-30T16:31:59.175Z,100215.91
2018-03-30T16:34:26.227Z,100219.11
2018-03-30T16:36:53.246Z,100216.00
2018-03-30T16:39:20.317Z,100218.33
2018-03-30T16:41:47.300Z,100216.41
2018-03-30T16:44:14.291Z,100213.00
2018-03-30T16:46:41.294Z,100218.11
2018-03-30T16:49:08.420Z,100211.13
2018-03-30T16:51:35.409Z,100212.12
2018-03-30T16:54:02.502Z,100211.58
2018-03-30T16:56:29.486Z,100205.98
2018-03-30T16:58:56.597Z,100212.30
2018-03-30T17:01:23.574Z,100208.52
2018-03-30T17:03:50.592Z,100203.33
2018-03-30T17:06:17.577Z,100196.37
2018-03-30T17:08:44.674Z,100207.36
2018-03-30T17:11:11.669Z,100202.13
2018-03-30T17:13:38.665Z,100210.47
2018-03-30T17:16:05.688Z,100205.55
2018-03-30T17:18:32.713Z,100198.60
2018-03-30T17:20:59.697Z,100194.94
2018-03-30T17:23:26.705Z,100192.86
2018-03-30T17:25:53.680Z,100189.45
2018-03-30T17:28:20.699Z,100192.78
2018-03-30T17:30:47.717Z,100183.72
2018-03-30T17:33:14.725Z,100188.71
2018-03-30T17:35:41.710Z,100184.14
2018-03-30T17:38:08.725Z,100178.61
2018-03-30T17:40:35.722Z,100184.56
2018-03-30T17:43:02.726Z,100183.38
2018-03-30T17:45:30.690Z,100179.55
2018-03-30T17:47:57.693Z,100181.52
2018-03-30T17:50:24.713Z,100188.80
2018-03-30T17:52:51.703Z,100189.87
2018-03-30T17:55:18.808Z,100191.80
2018-03-30T17:57:45.790Z,100192.44
2018-03-30T18:00:12.835Z,100197.66
2018-03-30T18:02:40.445Z,100198.45
2018-03-30T18:05:07.517Z,100196.34
2018-03-30T18:07:34.506Z,100199.09
2018-03-30T18:10:01.612Z,100201.64
2018-03-30T18:12:28.657Z,100207.73
2018-03-30T18:14:55.653Z,100203.53
2018-03-30T18:17:22.756Z,100204.13
2018-03-30T18:19:49.734Z,100208.12
2018-03-30T18:22:16.854Z,100203.89
2018-03-30T18:24:43.935Z,100202.72
2018-03-30T18:27:10.945Z,100207.27
2018-03-30T18:29:37.923Z,100197.56
2018-03-30T18:32:04.909Z,100205.30
2018-03-30T18:34:31.987Z,100205.85
2018-03-30T18:36:59.038Z,100203.34
2018-03-30T18:39:26.050Z,100208.51
2018-03-30T18:41:53.052Z,100204.23
2018-03-30T18:44:20.045Z,100208.81
2018-03-30T18:46:47.040Z,100202.29
2018-03-30T18:49:14.036Z,100203.23
2018-03-30T18:51:41.037Z,100203.97
2018-03-30T18:54:08.060Z,100204.62
2018-03-30T18:56:35.037Z,100205.59
2018-03-30T18:59:02.021Z,100215.02
2018-03-30T19:01:29.021Z,100222.80
2018-03-30T19:03:56.014Z,100219.81
2018-03-30T19:06:23.014Z,100226.59
2018-03-30T19:08:50.037Z,100225.52
2018-03-30T19:11:17.197Z,100224.28
2018-03-30T19:13:44.192Z,100222.16
2018-03-30T19:16:11.205Z,100232.11
2018-03-30T19:18:38.202Z,100230.30
2018-03-30T19:21:05.211Z,100231.05
2018-03-30T19:23:32.193Z,100221.86
2018-03-30T19:25:59.193Z,100225.94
2018-03-30T19:28:26.218Z,100233.61
2018-03-30T19:30:53.268Z,100231.95
2018-03-30T19:33:20.252Z,100237.84
2018-03-30T19:35:47.234Z,100241.59
2018-03-30T19:38:14.240Z,100241.59
2018-03-30T19:40:41.237Z,100237.86
2018-03-30T19:43:08.222Z,100234.80
2018-03-30T19:45:35.250Z,100232.23
2018-03-30T19:48:02.227Z,100232.80
2018-03-30T19:50:29.208Z,100234.67
2018-03-30T19:52:56.209Z,100234.73
2018-03-30T19:55:23.197Z,100234.91
2018-03-30T19:57:50.205Z,100239.44
2018-03-30T20:00:17.224Z,100229.21
2018-03-30T20:02:44.203Z,100231.20
2018-03-30T20:05:11.218Z,100222.45
2018-03-30T20:07:39.054Z,100223.78
2018-03-30T20:10:06.121Z,100222.15
2018-03-30T20:12:33.256Z,100206.39
2018-03-30T20:15:00.335Z,100200.67
2018-03-30T20:17:27.328Z,100204.27
2018-03-30T20:19:54.334Z,100203.50
2018-03-30T20:22:21.349Z,100189.37
2018-03-30T20:24:48.345Z,100194.77
2018-03-30T20:27:15.339Z,100200.93
2018-03-30T20:29:42.343Z,100191.80
2018-03-30T20:32:09.359Z,100184.88
2018-03-30T20:34:36.348Z,100189.80
2018-03-30T20:37:03.388Z,100188.27
2018-03-30T20:39:30.539Z,100194.09
2018-03-30T20:41:57.552Z,100189.48
2018-03-30T20:44:24.533Z,100190.75
2018-03-30T20:46:51.517Z,100181.44
2018-03-30T20:49:18.598Z,100186.85
2018-03-30T20:51:45.610Z,100178.90
2018-03-30T20:54:12.615Z,100173.77
2018-03-30T20:56:39.635Z,100172.87
2018-03-30T20:59:06.856Z,100176.52
2018-03-30T21:01:33.865Z,100176.00
2018-03-30T21:04:00.852Z,100165.34
2018-03-30T21:06:27.866Z,100170.06
2018-03-30T21:08:54.980Z,100166.03
2018-03-30T21:11:21.980Z,100166.59
2018-03-30T21:13:49.137Z,100154.22
2018-03-30T21:16:16.241Z,100164.80
2018-03-30T21:18:43.273Z,100166.32
2018-03-30T21:21:10.393Z,100161.49
2018-03-30T21:23:37.542Z,100163.22
2018-03-30T21:26:04.553Z,100165.61
2018-03-30T21:28:31.556Z,100166.97
2018-03-30T21:30:58.578Z,100166.54
2018-03-30T21:33:25.640Z,100165.30
2018-03-30T21:35:52.683Z,100170.59
2018-03-30T21:38:19.696Z,100166.27
2018-03-30T21:40:46.733Z,100158.65
2018-03-30T21:43:13.727Z,100160.04
2018-03-30T21:45:40.806Z,100157.56
2018-03-30T21:48:07.858Z,100160.62
2018-03-30T21:50:34.866Z,100161.16
2018-03-30T21:53:01.857Z,100156.45
2018-03-30T21:55:28.856Z,100162.23
2018-03-30T21:57:55.854Z,100157.44
2018-03-30T22:00:22.848Z,100156.20
2018-03-30T22:02:49.844Z,100161.14
2018-03-30T22:05:16.834Z,100159.47
2018-03-30T22:07:43.850Z,100169.39
2018-03-30T22:10:10.837Z,100170.78
2018-03-30T22:12:37.845Z,100173.50
2018-03-30T22:15:04.829Z,100165.98
2018-03-30T22:17:31.832Z,100171.16
2018-03-30T22:19:58.843Z,100165.03
2018-03-30T22:22:26.106Z,100170.44
2018-03-30T22:24:53.162Z,100165.35
2018-03-30T22:27:20.297Z,100172.44
2018-03-30T22:29:47.360Z,100176.51
2018-03-30T22:32:14.406Z,100169.19
2018-03-30T22:34:41.438Z,100158.48
2018-03-30T22:37:08.501Z,100150.64
2018-03-30T22:39:35.486Z,100153.77
2018-03-30T22:42:02.460Z,100149.05
2018-03-30T22:44:29.487Z,100143.84
2018-03-30T22:46:56.490Z,100136.25
2018-03-30T22:49:23.468Z,100141.80
2018-03-30T22:51:50.493Z,100146.05
2018-03-30T22:54:17.494Z,100130.77
2018-03-30T22:56:44.576Z,100132.77
2018-03-30T22:59:11.550Z,100134.12
2018-03-30T23:01:38.645Z,100110.64
2018-03-30T23:04:05.632Z,100099.17
2018-03-30T23:06:32.605Z,100099.55
2018-03-30T23:08:59.612Z,100090.51
2018-03-30T23:11:26.627Z,100093.67
2018-03-30T23:13:53.628Z,100091.54
2018-03-30T23:16:20.621Z,100091.13
2018-03-30T23:18:47.626Z,100096.09
2018-03-30T23:21:14.614Z,100098.42
2018-03-30T23:23:41.696Z,100093.73
2018-03-30T23:26:08.846Z,100088.04
2018-03-30T23:28:35.897Z,100082.89
2018-03-30T23:31:02.894Z,100091.02
2018-03-30T23:33:29.888Z,100088.88
2018-03-30T23:35:57.091Z,100078.63
2018-03-30T23:38:24.152Z,100067.26
2018-03-30T23:40:51.174Z,100066.52
2018-03-30T23:43:18.149Z,100063.98
2018-03-30T23:45:45.162Z,100057.67
2018-03-30T23:48:12.284Z,100056.02
2018-03-30T23:50:39.262Z,100059.20
2018-03-30T23:53:06.273Z,100054.41
2018-03-30T23:55:33.322Z,100067.35
2018-03-30T23:58:00.370Z,100072.58
